Time;durP1;ratioP1;P1;durP2;ratioP2;P2;SDS_P1;SDS_P2;PMS_P1;PMS_P2;Temp;Humidity;BMP_temperature;BMP_pressure;BME280_temperature;BME280_humidity;BME280_pressure;Samples;Min_cycle;Max_cycle;Signal;HPM_P1;HPM_P2
2021/08/08 00:02:04;;;;;;;13.02;2.60;;;;;;;29.36;44.98;100873.91;5096951;27;69657;-32
2021/08/08 00:04:35;;;;;;;8.27;2.55;;;;;;;29.36;45.36;100869.34;5116850;27;65305;-31
2021/08/08 00:07:12;;;;;;;6.65;2.50;;;;;;;29.39;44.76;100874.34;5113808;27;69738;-30
2021/08/08 00:09:43;;;;;;;3.05;2.75;;;;;;;29.40;46.28;100897.59;5114809;27;65563;-31
2021/08/08 00:15:34;;;;;;;5.35;3.35;;;;;;;29.59;52.52;100895.91;5115100;27;65532;-30
2021/08/08 00:18:07;;;;;;;6.15;4.20;;;;;;;29.75;53.58;100905.44;5109249;27;70101;-30
2021/08/08 00:20:39;;;;;;;4.72;4.00;;;;;;;29.91;55.41;100911.47;5114535;27;66279;-31
2021/08/08 00:23:10;;;;;;;7.47;3.70;;;;;;;30.04;55.20;100911.41;5115189;27;70908;-33
2021/08/08 00:25:40;;;;;;;7.65;3.67;;;;;;;30.18;56.67;100915.72;5115715;27;65343;-38
2021/08/08 00:28:11;;;;;;;7.53;4.15;;;;;;;30.26;57.75;100909.28;5118455;27;70035;-31
2021/08/08 00:30:41;;;;;;;4.25;3.63;;;;;;;30.40;56.70;100912.75;5115406;27;67071;-30
2021/08/08 00:33:12;;;;;;;6.50;4.78;;;;;;;30.44;58.50;100908.53;5099521;27;70204;-30
2021/08/08 00:35:48;;;;;;;8.40;4.93;;;;;;;30.55;58.92;100910.56;5106362;27;66158;-30
2021/08/08 00:38:24;;;;;;;4.70;4.07;;;;;;;30.68;58.83;100915.91;5115768;27;70354;-30
2021/08/08 00:40:55;;;;;;;25.13;5.22;;;;;;;30.77;58.19;100904.81;5114199;27;66105;-32
2021/08/08 00:43:26;;;;;;;17.57;6.03;;;;;;;30.80;60.06;100912.53;5110224;27;69414;-30
2021/08/08 00:45:57;;;;;;;9.50;4.55;;;;;;;30.92;58.97;100918.88;5114919;27;65902;-30
2021/08/08 00:48:27;;;;;;;16.50;5.38;;;;;;;30.98;61.13;100901.78;5111005;27;70182;-30
2021/08/08 00:50:58;;;;;;;8.05;4.78;;;;;;;31.02;60.12;100904.88;5096659;27;65914;-30
2021/08/08 00:53:43;;;;;;;13.27;4.78;;;;;;;31.09;60.03;100914.59;5108468;27;69935;-30
2021/08/08 00:56:16;;;;;;;9.13;5.10;;;;;;;30.95;60.28;100883.22;5111296;27;65924;-30
2021/08/08 00:58:50;;;;;;;10.65;4.93;;;;;;;31.22;60.52;100916.34;5112773;27;70060;-30
2021/08/08 01:01:27;;;;;;;13.68;4.70;;;;;;;31.28;60.82;100914.63;5126363;27;67915;-31
2021/08/08 01:04:06;;;;;;;14.82;5.78;;;;;;;31.33;61.08;100918.34;5115083;27;69619;-29
2021/08/08 01:06:48;;;;;;;10.38;5.05;;;;;;;31.37;63.49;100905.19;5090128;27;66239;-30
2021/08/08 01:09:23;;;;;;;16.52;5.55;;;;;;;31.19;61.97;100878.88;5111540;27;70180;-31
2021/08/08 01:11:54;;;;;;;17.00;5.50;;;;;;;31.45;62.70;100914.94;5108748;27;65315;-31
2021/08/08 01:14:29;;;;;;;11.30;4.27;;;;;;;31.28;61.72;100876.69;5106893;27;70104;-29
2021/08/08 01:17:04;;;;;;;13.60;4.38;;;;;;;31.53;62.53;100912.75;5115702;27;65814;-30
2021/08/08 01:19:42;;;;;;;10.38;4.70;;;;;;;31.58;62.91;100921.03;5113288;27;70077;-30
2021/08/08 01:22:13;;;;;;;8.10;4.47;;;;;;;31.61;62.70;100925.19;5130773;27;65878;-29
2021/08/08 01:24:45;;;;;;;11.75;3.95;;;;;;;31.65;62.12;100910.16;5116002;27;70114;-30
2021/08/08 01:27:18;;;;;;;8.07;3.90;;;;;;;31.66;61.93;100910.97;5110211;27;65205;-30
2021/08/08 01:29:49;;;;;;;9.65;3.30;;;;;;;31.70;61.97;100912.16;5111262;27;69783;-31
2021/08/08 01:32:20;;;;;;;10.57;4.35;;;;;;;31.73;61.29;100914.44;5124443;27;65635;-31
2021/08/08 01:34:51;;;;;;;8.17;3.80;;;;;;;31.76;61.38;100914.81;5110927;27;69306;-32
2021/08/08 01:37:28;;;;;;;14.40;3.53;;;;;;;31.78;61.27;100915.41;5106760;27;65343;-30
2021/08/08 01:40:13;;;;;;;7.60;4.05;;;;;;;31.60;61.94;100885.59;5110015;27;69692;-30
2021/08/08 01:42:46;;;;;;;6.85;4.57;;;;;;;31.82;61.27;100916.63;5114095;27;66129;-29
2021/08/08 01:45:18;;;;;;;7.18;4.72;;;;;;;31.74;60.88;100902.53;5116140;27;69682;-30
2021/08/08 01:47:55;;;;;;;7.90;4.28;;;;;;;31.70;61.45;100883.16;5112663;27;65423;-30
2021/08/08 01:50:31;;;;;;;6.72;3.95;;;;;;;31.93;60.79;100911.50;5106033;27;69476;-30
2021/08/08 01:53:06;;;;;;;7.35;3.90;;;;;;;31.97;60.88;100908.13;5095313;27;66939;-31
2021/08/08 01:55:42;;;;;;;10.05;3.92;;;;;;;32.01;61.21;100913.91;5100525;27;69834;-31
2021/08/08 01:58:14;;;;;;;4.25;2.83;;;;;;;32.02;61.71;100911.00;5114150;27;65401;-30
2021/08/08 02:00:48;;;;;;;;;;;;;;;31.90;62.39;100918.22;5115000;27;69613;-31
2021/08/08 02:03:35;;;;;;;10.48;3.80;;;;;;;32.08;61.48;100913.84;5111097;27;66724;-30
2021/08/08 02:06:10;;;;;;;12.73;3.85;;;;;;;32.12;60.95;100907.72;5110125;27;70107;-31
2021/08/08 02:08:49;;;;;;;3.65;3.17;;;;;;;32.12;61.69;100904.19;5112139;27;66329;-30
2021/08/08 02:11:23;;;;;;;15.63;4.30;;;;;;;32.21;60.74;100908.28;5106479;27;69411;-31
2021/08/08 02:14:04;;;;;;;10.60;4.43;;;;;;;32.23;60.65;100911.56;5102684;27;65344;-33
2021/08/08 02:16:57;;;;;;;11.30;4.65;;;;;;;32.25;60.59;100894.00;5100005;27;70160;-29
2021/08/08 02:19:31;;;;;;;6.95;4.70;;;;;;;32.32;61.02;100904.78;5108691;27;66262;-33
2021/08/08 02:22:03;;;;;;;9.17;3.90;;;;;;;32.33;60.77;100903.72;5105713;27;69531;-36
2021/08/08 02:25:04;;;;;;;4.20;3.80;;;;;;;32.38;60.83;100914.72;5107906;27;66447;-31
2021/08/08 02:27:41;;;;;;;5.13;3.28;;;;;;;32.38;61.06;100906.56;5110909;27;70032;-31
2021/08/08 02:30:50;;;;;;;6.93;3.97;;;;;;;32.42;60.43;100901.50;5109437;27;66075;-31
2021/08/08 02:33:26;;;;;;;10.80;4.20;;;;;;;32.43;60.59;100895.84;5115071;27;69495;-31
2021/08/08 02:36:00;;;;;;;11.10;3.20;;;;;;;32.47;60.12;100886.19;5113977;27;65350;-32
2021/08/08 02:38:40;;;;;;;4.18;3.13;;;;;;;32.43;60.50;100879.56;5094401;27;70085;-32
2021/08/08 02:41:12;;;;;;;6.97;3.40;;;;;;;32.53;60.87;100889.06;5129627;27;66631;-34
2021/08/08 02:43:44;;;;;;;8.85;2.90;;;;;;;32.55;60.28;100886.94;5098593;27;69559;-31
2021/08/08 02:46:15;;;;;;;9.52;3.35;;;;;;;32.57;60.46;100884.81;5113256;27;66457;-30
2021/08/08 02:48:49;;;;;;;9.77;3.80;;;;;;;32.61;61.01;100891.44;5108102;27;69821;-31
2021/08/08 02:51:20;;;;;;;5.25;2.90;;;;;;;32.56;60.75;100878.53;5102530;27;66078;-32
2021/08/08 02:53:51;;;;;;;5.13;3.10;;;;;;;32.65;60.19;100882.59;5096402;27;70257;-33
2021/08/08 02:56:21;;;;;;;4.93;3.03;;;;;;;32.63;60.27;100862.16;5119650;27;65972;-31
2021/08/08 02:59:03;;;;;;;5.83;2.90;;;;;;;32.72;59.62;100875.16;5110242;27;69407;-32
2021/08/08 03:01:34;;;;;;;11.38;3.30;;;;;;;32.70;60.23;100860.97;5117049;27;66635;-36
2021/08/08 03:04:04;;;;;;;7.10;3.20;;;;;;;32.78;59.33;100859.00;5109520;27;70700;-32
2021/08/08 03:06:36;;;;;;;4.05;3.45;;;;;;;32.79;59.26;100863.38;5110970;27;66320;-30
2021/08/08 03:09:07;;;;;;;;;;;;;;;32.67;59.65;100866.06;5100757;27;70525;-31
2021/08/08 03:11:45;;;;;;;5.68;3.45;;;;;;;32.80;59.09;100856.88;5103409;27;66306;-32
2021/08/08 03:14:20;;;;;;;5.90;3.00;;;;;;;32.89;59.49;100856.28;5088327;27;70320;-31
2021/08/08 03:16:55;;;;;;;8.02;3.70;;;;;;;32.91;58.83;100856.06;5098745;27;65445;-31
2021/08/08 03:19:30;;;;;;;7.72;3.60;;;;;;;32.93;59.73;100862.94;5111556;27;70292;-33
2021/08/08 03:22:01;;;;;;;7.43;3.53;;;;;;;32.94;59.05;100858.31;5116757;27;66745;-30
2021/08/08 03:24:32;;;;;;;10.07;4.05;;;;;;;32.97;59.44;100840.72;5099456;27;69394;-31
2021/08/08 03:27:12;;;;;;;5.88;3.47;;;;;;;32.98;59.38;100842.38;5113363;27;65524;-36
2021/08/08 03:30:10;;;;;;;5.97;3.75;;;;;;;32.60;59.08;100773.84;5125518;27;69963;-31
2021/08/08 03:32:41;;;;;;;6.22;3.25;;;;;;;33.02;59.23;100838.97;5113481;27;66252;-30
2021/08/08 03:35:12;;;;;;;11.20;3.33;;;;;;;33.09;58.69;100833.41;5117714;27;69717;-30
2021/08/08 03:37:48;;;;;;;9.15;3.20;;;;;;;33.13;58.71;100831.88;5115777;27;65476;-31
2021/08/08 03:40:19;;;;;;;3.85;3.15;;;;;;;33.11;58.85;100809.56;5111438;27;69980;-31
2021/08/08 03:42:51;;;;;;;3.63;2.93;;;;;;;33.20;58.59;100834.47;5095563;27;65498;-30
2021/08/08 03:45:22;;;;;;;8.73;3.27;;;;;;;33.24;58.33;100827.50;5114330;27;70542;-36
2021/08/08 03:47:53;;;;;;;4.60;3.00;;;;;;;33.26;57.73;100831.63;5116701;27;65363;-31
2021/08/08 03:50:24;;;;;;;4.05;2.80;;;;;;;33.29;57.72;100828.47;5112921;27;69310;-32
2021/08/08 03:52:56;;;;;;;6.97;2.80;;;;;;;33.30;57.87;100819.22;5109545;27;65809;-30
2021/08/08 03:55:27;;;;;;;7.45;2.72;;;;;;;33.36;58.01;100826.41;5115489;27;69738;-35
2021/08/08 03:57:58;;;;;;;3.13;2.33;;;;;;;33.36;58.00;100818.25;5116834;27;67326;-32
2021/08/08 04:00:29;;;;;;;3.30;2.47;;;;;;;33.37;57.92;100819.91;5098228;27;68901;-32
2021/08/08 04:03:00;;;;;;;7.72;2.45;;;;;;;33.38;57.84;100826.19;5110364;27;65596;-30
2021/08/08 04:05:31;;;;;;;6.00;2.35;;;;;;;33.40;58.05;100817.78;5110143;27;70903;-30
2021/08/08 04:08:01;;;;;;;4.63;2.78;;;;;;;33.38;57.58;100802.53;5114375;27;65940;-31
2021/08/08 04:10:32;;;;;;;6.72;2.60;;;;;;;33.45;57.72;100815.19;5113412;27;69537;-31
2021/08/08 04:13:03;;;;;;;7.00;2.53;;;;;;;33.44;57.78;100814.34;5116696;27;67032;-32
2021/08/08 04:15:34;;;;;;;4.25;2.75;;;;;;;33.44;57.76;100819.78;5115576;27;69921;-33
2021/08/08 04:18:05;;;;;;;5.55;2.67;;;;;;;33.40;57.89;100801.47;5096830;27;65310;-31
2021/08/08 04:20:37;;;;;;;7.53;2.83;;;;;;;33.49;57.78;100810.91;5093991;27;69651;-31
2021/08/08 04:23:11;;;;;;;4.50;2.30;;;;;;;33.53;57.50;100809.41;5098853;27;66726;-32
2021/08/08 04:25:42;;;;;;;6.95;2.50;;;;;;;33.52;57.54;100810.44;5110582;27;69955;-31
2021/08/08 04:28:13;;;;;;;7.13;2.65;;;;;;;33.53;57.59;100802.06;5109742;27;66294;-30
2021/08/08 04:30:44;;;;;;;3.87;2.80;;;;;;;33.56;57.67;100800.75;5112980;27;70212;-32
2021/08/08 04:33:15;;;;;;;9.02;2.38;;;;;;;33.58;57.64;100794.00;5089681;27;66047;-30
2021/08/08 04:35:46;;;;;;;6.63;2.72;;;;;;;33.62;57.65;100799.78;5113886;27;69875;-31
2021/08/08 04:38:20;;;;;;;7.40;2.35;;;;;;;33.65;57.67;100782.97;5107708;27;66248;-30
2021/08/08 04:40:50;;;;;;;2.53;2.05;;;;;;;33.70;57.37;100779.53;5095368;27;71193;-31
2021/08/08 04:43:21;;;;;;;7.75;2.30;;;;;;;33.73;57.03;100768.19;5114609;27;64949;-32
2021/08/08 04:45:52;;;;;;;4.63;2.03;;;;;;;33.75;57.20;100768.78;5113177;27;69918;-30
2021/08/08 04:48:24;;;;;;;4.38;1.95;;;;;;;33.75;57.51;100766.88;5112895;27;65540;-31
2021/08/08 04:51:03;;;;;;;4.35;2.08;;;;;;;33.81;57.09;100760.44;5095667;27;70652;-30
2021/08/08 04:53:35;;;;;;;5.25;2.40;;;;;;;33.86;57.13;100756.19;5099162;27;66154;-30
2021/08/08 04:56:06;;;;;;;7.05;2.25;;;;;;;33.87;57.07;100758.66;5116219;27;70739;-32
2021/08/08 04:58:36;;;;;;;6.30;2.80;;;;;;;33.91;56.99;100748.94;5131824;27;66091;-31
2021/08/08 05:01:07;;;;;;;6.32;2.40;;;;;;;33.91;57.21;100748.13;5110287;27;69800;-31
2021/08/08 05:03:39;;;;;;;9.40;2.47;;;;;;;33.94;57.15;100742.19;5114167;27;66208;-30
2021/08/08 05:06:10;;;;;;;8.68;2.38;;;;;;;33.89;54.76;100742.09;5131996;27;69996;-32
2021/08/08 05:08:40;;;;;;;5.30;2.20;;;;;;;33.82;53.87;100739.50;5113965;27;66546;-31
2021/08/08 05:11:17;;;;;;;2.70;1.77;;;;;;;33.69;53.87;100735.19;5111309;27;69779;-32
2021/08/08 05:13:57;;;;;;;3.83;2.20;;;;;;;33.55;52.86;100737.38;5128797;27;66455;-30
2021/08/08 05:16:28;;;;;;;2.70;1.95;;;;;;;33.45;52.62;100728.16;5113467;27;69157;-31
2021/08/08 05:19:01;;;;;;;4.30;1.70;;;;;;;33.35;51.32;100718.75;5109151;27;65214;-30
2021/08/08 05:21:34;;;;;;;10.00;1.77;;;;;;;33.28;51.87;100723.47;5129384;27;70043;-31
2021/08/08 05:24:06;;;;;;;4.40;1.70;;;;;;;33.14;51.20;100701.19;5105510;27;66040;-30
2021/08/08 05:26:37;;;;;;;11.77;1.70;;;;;;;33.10;50.04;100710.06;5115676;27;70030;-31
2021/08/08 05:29:09;;;;;;;13.43;1.70;;;;;;;33.00;50.31;100704.41;5092025;27;66554;-32
2021/08/08 05:31:49;;;;;;;6.88;1.30;;;;;;;32.92;49.47;100698.22;5096378;27;70298;-33
2021/08/08 05:34:21;;;;;;;10.40;0.93;;;;;;;32.86;49.38;100698.38;5098713;27;66435;-31
2021/08/08 05:36:51;;;;;;;6.93;0.93;;;;;;;32.79;48.69;100692.22;5112715;27;70067;-31
2021/08/08 05:39:22;;;;;;;10.65;0.82;;;;;;;32.76;48.94;100693.53;5083164;27;65777;-34
2021/08/08 05:41:53;;;;;;;5.23;1.10;;;;;;;32.71;48.99;100696.16;5109976;27;70342;-33
2021/08/08 05:44:24;;;;;;;2.38;0.80;;;;;;;32.68;48.77;100688.44;5113536;27;64534;-33
2021/08/08 05:46:59;;;;;;;4.13;0.77;;;;;;;32.66;48.22;100682.44;5094668;27;69983;-32
2021/08/08 05:49:35;;;;;;;4.97;0.80;;;;;;;32.64;48.03;100690.00;5110824;27;66399;-33
2021/08/08 05:52:07;;;;;;;7.75;0.60;;;;;;;32.55;47.36;100669.72;5115260;27;70180;-31
2021/08/08 05:54:37;;;;;;;5.13;0.70;;;;;;;32.55;46.95;100672.44;5098043;27;65260;-31
2021/08/08 05:57:09;;;;;;;1.13;0.60;;;;;;;32.55;46.83;100664.28;5117877;27;69904;-34
2021/08/08 05:59:40;;;;;;;1.23;0.55;;;;;;;32.51;46.90;100658.47;5098979;27;68438;-32
2021/08/08 06:02:11;;;;;;;0.68;0.47;;;;;;;32.45;46.48;100654.78;5111777;27;70229;-31
2021/08/08 06:04:47;;;;;;;5.03;0.40;;;;;;;32.43;45.92;100654.22;5101256;27;66256;-33
2021/08/08 06:07:18;;;;;;;0.60;0.40;;;;;;;32.39;45.72;100647.59;5117086;27;70043;-30
2021/08/08 06:09:48;;;;;;;0.80;0.40;;;;;;;32.37;45.10;100640.75;5116859;27;65973;-30
2021/08/08 06:12:19;;;;;;;1.20;0.40;;;;;;;32.39;45.52;100630.47;5096132;27;69975;-30
2021/08/08 06:14:49;;;;;;;0.77;0.60;;;;;;;32.36;45.02;100645.34;5133894;27;66448;-32
2021/08/08 06:17:23;;;;;;;1.45;0.40;;;;;;;32.36;44.73;100639.09;5117714;27;70601;-31
2021/08/08 06:19:54;;;;;;;1.27;0.50;;;;;;;32.28;44.72;100626.72;5092375;27;66206;-30
2021/08/08 06:22:29;;;;;;;0.70;0.60;;;;;;;32.32;45.00;100622.47;5116838;27;69942;-31
2021/08/08 06:25:00;;;;;;;0.98;0.45;;;;;;;32.28;44.83;100624.00;5114868;27;66809;-31
2021/08/08 06:27:33;;;;;;;3.53;0.60;;;;;;;32.29;45.09;100612.09;5117396;27;69538;-31
2021/08/08 06:30:05;;;;;;;0.82;0.43;;;;;;;32.31;44.79;100609.94;5112287;27;66204;-30
2021/08/08 06:32:36;;;;;;;1.38;0.57;;;;;;;32.28;44.73;100605.81;5118842;27;69480;-31
2021/08/08 06:35:09;;;;;;;5.40;0.50;;;;;;;32.33;44.45;100602.41;5112068;27;66429;-30
2021/08/08 06:37:43;;;;;;;0.70;0.60;;;;;;;32.33;43.83;100612.44;5115184;27;70873;-32
2021/08/08 06:40:37;;;;;;;3.33;0.60;;;;;;;32.32;43.69;100603.47;5116837;27;65975;-31
2021/08/08 06:43:09;;;;;;;1.15;0.55;;;;;;;32.31;43.15;100595.56;5097856;27;70310;-29
2021/08/08 06:45:43;;;;;;;0.70;0.50;;;;;;;32.35;43.60;100599.47;5111205;27;66360;-31
2021/08/08 06:48:13;;;;;;;1.10;0.50;;;;;;;32.35;43.50;100589.41;5113981;27;70296;-30
2021/08/08 06:50:46;;;;;;;1.42;0.60;;;;;;;32.38;43.82;100598.97;5117446;27;66574;-31
2021/08/08 06:53:17;;;;;;;7.30;0.68;;;;;;;32.39;44.40;100596.00;5102229;27;69847;-31
2021/08/08 06:55:50;;;;;;;3.45;0.40;;;;;;;32.39;43.47;100590.59;5128364;27;67082;-31
2021/08/08 06:58:21;;;;;;;1.60;0.50;;;;;;;32.39;44.49;100574.28;5117296;27;69585;-30
2021/08/08 07:00:56;;;;;;;1.27;0.50;;;;;;;32.43;43.74;100564.63;5111909;27;65550;-30
2021/08/08 07:03:30;;;;;;;4.32;0.88;;;;;;;32.52;43.67;100567.00;5097386;27;68969;-30
2021/08/08 07:06:02;;;;;;;0.82;0.52;;;;;;;32.53;42.80;100563.22;5133068;27;65310;-31
2021/08/08 07:08:36;;;;;;;7.80;0.60;;;;;;;32.57;42.40;100559.78;5113165;27;69228;-30
2021/08/08 07:11:11;;;;;;;0.88;0.50;;;;;;;32.56;43.21;100562.75;5110175;27;66412;-30
2021/08/08 07:13:42;;;;;;;1.02;0.60;;;;;;;32.58;42.78;100560.63;5111198;27;69719;-31
2021/08/08 07:16:13;;;;;;;;;;;;;;;32.40;43.13;100548.81;5109842;27;66513;-31
2021/08/08 07:18:43;;;;;;;3.05;0.85;;;;;;;32.54;43.09;100548.56;5113542;27;70449;-30
2021/08/08 07:21:34;;;;;;;4.32;0.90;;;;;;;32.59;43.06;100552.22;5113257;27;66161;-30
2021/08/08 07:24:36;;;;;;;;;;;;;;;32.40;43.03;100548.81;5060372;27;69089;-31
2021/08/08 07:27:30;;;;;;;1.38;0.75;;;;;;;32.57;43.07;100553.50;5056139;28;66617;-31
2021/08/08 07:30:03;;;;;;;6.80;0.88;;;;;;;32.57;42.66;100550.81;5071655;27;70311;-31
2021/08/08 07:32:36;;;;;;;2.08;1.00;;;;;;;32.57;42.68;100554.38;5040481;27;66273;-30
2021/08/08 07:35:08;;;;;;;3.58;0.70;;;;;;;32.51;42.25;100543.63;5058167;28;70007;-30
2021/08/08 07:37:39;;;;;;;1.00;0.70;;;;;;;32.45;42.29;100529.91;5042524;27;66492;-30
2021/08/08 07:40:14;;;;;;;1.65;0.80;;;;;;;32.57;41.80;100542.66;5043197;28;70596;-31
2021/08/08 07:42:52;;;;;;;1.90;0.60;;;;;;;32.57;42.44;100529.06;5070462;27;65477;-30
2021/08/08 07:45:27;;;;;;;1.20;0.70;;;;;;;32.57;42.03;100531.78;5039758;27;70462;-31
2021/08/08 07:47:58;;;;;;;4.10;0.70;;;;;;;32.54;41.86;100535.00;5049858;27;66788;-30
2021/08/08 07:50:29;;;;;;;1.63;0.50;;;;;;;32.58;41.69;100533.47;5055073;28;69930;-32
2021/08/08 07:52:59;;;;;;;6.03;0.75;;;;;;;32.56;41.97;100528.25;5055821;27;66179;-30
2021/08/08 07:55:56;;;;;;;1.20;0.60;;;;;;;32.58;41.87;100528.03;5055661;27;70147;-34
2021/08/08 07:58:26;;;;;;;1.55;0.90;;;;;;;32.55;41.81;100517.66;5034461;28;66034;-31
2021/08/08 08:00:57;;;;;;;4.40;1.05;;;;;;;32.54;43.96;100522.25;5059706;27;69872;-30
2021/08/08 08:03:29;;;;;;;3.17;1.10;;;;;;;32.57;46.05;100520.94;5052125;28;65403;-32
2021/08/08 08:06:00;;;;;;;5.63;0.95;;;;;;;32.44;45.60;100484.81;5057199;27;69857;-31
2021/08/08 08:08:31;;;;;;;2.10;1.02;;;;;;;32.67;45.02;100511.09;5051714;27;66122;-30
2021/08/08 08:11:03;;;;;;;10.20;0.98;;;;;;;32.68;45.21;100506.50;5052148;28;69809;-31
2021/08/08 08:13:38;;;;;;;1.80;0.90;;;;;;;32.68;44.66;100501.06;5072793;27;65254;-30
2021/08/08 08:16:09;;;;;;;4.00;0.95;;;;;;;32.69;44.38;100498.13;5055872;28;69262;-30
2021/08/08 08:18:48;;;;;;;8.93;1.30;;;;;;;32.71;44.64;100506.03;5072252;27;65651;-31
2021/08/08 08:21:19;;;;;;;2.73;1.17;;;;;;;32.73;45.56;100503.88;5082768;27;69945;-29
2021/08/08 08:23:52;;;;;;;4.88;1.38;;;;;;;32.71;45.10;100489.75;5118145;27;43027;-31
2021/08/08 08:26:23;;;;;;;6.95;1.52;;;;;;;32.74;45.35;100486.53;5116199;27;70035;-30
2021/08/08 08:28:56;;;;;;;2.92;1.23;;;;;;;32.79;45.14;100480.34;5115613;27;67264;-30
2021/08/08 08:31:27;;;;;;;13.13;2.40;;;;;;;32.82;48.15;100480.72;5113605;27;69627;-30
2021/08/08 08:34:00;;;;;;;7.78;2.97;;;;;;;32.95;52.33;100474.13;5095076;27;65550;-31
2021/08/08 08:36:32;;;;;;;11.52;4.10;;;;;;;33.11;55.58;100467.13;5126708;27;70253;-31
2021/08/08 08:39:05;;;;;;;6.22;3.70;;;;;;;33.30;54.29;100468.53;5092576;27;65819;-32
2021/08/08 08:41:37;;;;;;;9.63;4.25;;;;;;;33.46;56.06;100463.31;5085780;27;69889;-33
2021/08/08 08:44:08;;;;;;;16.65;4.72;;;;;;;33.58;56.63;100475.00;5096488;27;66355;-31
2021/08/08 08:46:45;;;;;;;5.63;4.55;;;;;;;33.50;55.39;100434.59;5113857;27;70511;-32
2021/08/08 08:49:22;;;;;;;6.03;4.20;;;;;;;33.77;55.60;100462.78;5105817;27;66753;-32
2021/08/08 08:52:01;;;;;;;5.25;4.63;;;;;;;33.88;55.12;100476.50;5112326;27;69329;-31
2021/08/08 08:54:33;;;;;;;8.30;4.82;;;;;;;33.93;55.62;100469.22;5080715;27;66229;-32
2021/08/08 08:57:07;;;;;;;8.07;4.90;;;;;;;34.01;54.69;100481.59;5109944;27;69943;-31
2021/08/08 08:59:39;;;;;;;5.25;4.75;;;;;;;34.06;55.66;100478.97;5116555;27;66269;-32
2021/08/08 09:02:10;;;;;;;10.38;5.25;;;;;;;34.11;55.83;100470.88;5097972;27;70477;-31
2021/08/08 09:04:43;;;;;;;7.18;5.30;;;;;;;34.18;56.19;100471.50;5117014;27;65207;-32
2021/08/08 09:07:16;;;;;;;8.57;5.47;;;;;;;34.22;56.23;100472.66;5108413;27;70353;-31
2021/08/08 09:09:48;;;;;;;7.65;5.63;;;;;;;34.29;56.47;100477.06;5107908;27;66925;-32
2021/08/08 09:12:29;;;;;;;9.57;5.60;;;;;;;34.25;56.72;100463.97;5108159;27;70093;-31
2021/08/08 09:15:34;;;;;;;7.40;4.90;;;;;;;34.27;56.78;100469.19;5111242;27;65487;-32
2021/08/08 09:18:24;;;;;;;5.97;5.32;;;;;;;34.35;56.97;100478.78;5106739;27;70092;-32
2021/08/08 09:21:09;;;;;;;11.80;6.13;;;;;;;34.17;56.40;100442.63;5091353;27;65779;-30
2021/08/08 09:23:43;;;;;;;5.97;5.40;;;;;;;34.42;55.41;100479.41;5107589;27;69459;-31
2021/08/08 09:26:13;;;;;;;14.23;5.13;;;;;;;34.38;55.19;100470.09;5111788;27;66344;-31
2021/08/08 09:28:45;;;;;;;8.75;5.30;;;;;;;34.51;54.64;100477.88;5129377;27;68820;-32
2021/08/08 09:31:20;;;;;;;7.32;5.45;;;;;;;34.28;54.13;100426.44;5108247;27;66226;-31
2021/08/08 09:33:52;;;;;;;5.82;5.22;;;;;;;34.75;53.71;100485.81;5114383;27;69489;-31
2021/08/08 09:36:23;;;;;;;11.10;5.72;;;;;;;34.85;53.86;100491.34;5105754;27;65788;-31
2021/08/08 09:38:53;;;;;;;8.43;6.22;;;;;;;34.88;53.84;100499.88;5115703;27;70049;-32
2021/08/08 09:41:29;;;;;;;7.57;6.88;;;;;;;34.95;53.82;100486.03;5116154;27;66391;-31
2021/08/08 09:44:08;;;;;;;9.40;7.22;;;;;;;35.08;53.23;100491.09;5111015;27;69792;-31
2021/08/08 09:46:39;;;;;;;8.02;7.22;;;;;;;35.12;53.69;100489.47;5109177;27;66541;-33
2021/08/08 09:49:13;;;;;;;8.63;7.82;;;;;;;35.21;53.52;100489.00;5106320;27;70357;-35
2021/08/08 09:51:52;;;;;;;12.55;8.18;;;;;;;35.04;53.93;100451.75;5111283;27;66266;-32
2021/08/08 09:54:34;;;;;;;;;;;;;;;35.09;54.24;100487.28;5106631;27;69328;-31
2021/08/08 09:57:05;;;;;;;8.80;7.80;;;;;;;35.33;53.33;100486.94;5115038;27;66573;-31
2021/08/08 09:59:48;;;;;;;9.20;8.32;;;;;;;35.33;53.67;100478.75;5111365;27;69592;-32
2021/08/08 10:02:23;;;;;;;14.45;8.57;;;;;;;35.22;53.15;100463.41;5109854;27;66115;-31
2021/08/08 10:04:53;;;;;;;14.45;9.30;;;;;;;35.41;53.29;100493.81;5115579;27;69044;-31
2021/08/08 10:07:28;;;;;;;24.92;9.70;;;;;;;35.49;53.59;100485.13;5116031;27;66485;-32
2021/08/08 10:10:01;;;;;;;19.50;9.10;;;;;;;35.50;53.91;100493.06;5110644;27;70571;-32
2021/08/08 10:12:43;;;;;;;14.48;9.07;;;;;;;35.48;53.83;100487.06;5112699;27;64946;-30
2021/08/08 10:15:14;;;;;;;11.02;8.80;;;;;;;35.38;54.21;100489.69;5113334;27;70186;-31
2021/08/08 10:17:47;;;;;;;14.77;9.50;;;;;;;35.32;54.10;100493.47;5117061;27;66394;-31
2021/08/08 10:20:19;;;;;;;17.17;8.70;;;;;;;35.23;54.99;100500.47;5110043;27;69955;-35
2021/08/08 10:22:57;;;;;;;13.43;8.45;;;;;;;35.13;54.48;100504.78;5093276;27;65579;-32
2021/08/08 10:25:27;;;;;;;;;;;;;;;34.86;54.97;100503.91;5107370;27;69505;-32
2021/08/08 10:27:58;;;;;;;10.88;8.50;;;;;;;34.59;54.91;100455.69;5114221;27;66087;-32
2021/08/08 10:30:33;;;;;;;12.55;8.90;;;;;;;34.74;55.42;100505.94;5112943;27;69370;-32
2021/08/08 10:33:07;;;;;;;9.05;8.23;;;;;;;34.70;55.79;100520.09;5112408;27;65452;-31
2021/08/08 10:35:43;;;;;;;13.20;9.18;;;;;;;34.64;55.35;100518.38;5110686;27;69049;-31
2021/08/08 10:38:15;;;;;;;13.88;10.10;;;;;;;34.36;55.37;100477.72;5109749;27;65001;-31
2021/08/08 10:40:46;;;;;;;10.32;9.32;;;;;;;34.52;55.61;100520.41;5114194;27;69960;-30
2021/08/08 10:43:28;;;;;;;11.20;10.10;;;;;;;34.50;55.25;100514.38;5117353;27;66306;-31
2021/08/08 10:46:05;;;;;;;11.27;10.27;;;;;;;34.46;56.04;100521.41;5114837;27;70282;-31
2021/08/08 10:48:38;;;;;;;13.63;9.77;;;;;;;34.43;55.92;100528.16;5114253;27;65209;-32
2021/08/08 10:51:24;;;;;;;11.60;10.50;;;;;;;34.08;56.24;100487.72;5117278;27;70246;-31
2021/08/08 10:54:03;;;;;;;14.55;9.43;;;;;;;34.41;56.18;100526.81;5118243;27;65651;-32
2021/08/08 10:56:48;;;;;;;15.77;10.15;;;;;;;34.38;55.78;100535.44;5114613;27;70147;-31
2021/08/08 10:59:21;;;;;;;15.35;10.35;;;;;;;34.32;56.03;100525.56;5116139;27;66609;-32
2021/08/08 11:02:09;;;;;;;14.52;10.20;;;;;;;34.29;56.71;100536.97;5110138;27;69102;-34
2021/08/08 11:04:40;;;;;;;14.05;11.80;;;;;;;34.32;56.16;100547.34;5110284;27;66384;-31
2021/08/08 11:07:14;;;;;;;15.27;12.75;;;;;;;34.30;56.29;100549.50;5111976;27;68605;-32
2021/08/08 11:09:45;;;;;;;12.65;11.38;;;;;;;34.30;56.16;100541.34;5113155;27;65776;-31
2021/08/08 11:12:18;;;;;;;17.17;11.82;;;;;;;34.26;57.00;100552.72;5110018;27;70173;-31
2021/08/08 11:14:49;;;;;;;13.63;11.32;;;;;;;34.23;57.14;100545.06;5115250;27;64332;-31
2021/08/08 11:17:26;;;;;;;13.60;12.27;;;;;;;34.28;56.49;100554.41;5114262;27;70104;-31
2021/08/08 11:19:57;;;;;;;17.60;12.65;;;;;;;34.26;57.09;100563.63;5115445;27;65666;-31
2021/08/08 11:22:28;;;;;;;17.37;12.47;;;;;;;34.02;56.87;100521.34;5113790;27;72607;-32
2021/08/08 11:25:14;;;;;;;17.27;12.70;;;;;;;34.05;56.88;100526.31;5114613;27;66197;-30
2021/08/08 11:27:47;;;;;;;16.52;12.85;;;;;;;34.26;56.85;100565.53;5113571;27;70057;-31
2021/08/08 11:30:20;;;;;;;17.83;12.77;;;;;;;34.21;56.79;100573.63;5115270;27;66449;-31
2021/08/08 11:32:54;;;;;;;16.60;12.87;;;;;;;34.18;56.48;100574.94;5113633;27;69899;-30
2021/08/08 11:35:27;;;;;;;17.38;12.85;;;;;;;34.16;56.56;100577.09;5111878;27;65471;-31
2021/08/08 11:38:02;;;;;;;21.35;15.02;;;;;;;34.06;56.78;100582.38;5111729;27;70586;-30
2021/08/08 11:40:33;;;;;;;16.38;14.52;;;;;;;34.02;56.74;100579.31;5109659;27;65421;-30
2021/08/08 11:43:06;;;;;;;22.48;13.65;;;;;;;34.08;56.38;100593.03;5112115;27;69265;-30
2021/08/08 11:45:39;;;;;;;15.70;12.60;;;;;;;34.11;56.73;100606.97;5112947;27;66398;-30
2021/08/08 11:48:11;;;;;;;15.70;12.10;;;;;;;34.07;56.69;100605.81;5111016;27;70151;-31
2021/08/08 11:50:42;;;;;;;14.20;12.25;;;;;;;34.05;57.43;100618.84;5114263;27;66216;-32
2021/08/08 11:53:13;;;;;;;22.83;12.67;;;;;;;34.05;57.39;100624.31;5111482;27;69719;-32
2021/08/08 11:56:13;;;;;;;16.92;12.38;;;;;;;34.05;57.43;100618.84;5115170;27;65271;-31
2021/08/08 11:59:02;;;;;;;15.57;12.48;;;;;;;33.85;57.27;100613.03;5117031;27;69952;-32
2021/08/08 12:01:59;;;;;;;;;;;;;;;;;;;;;